หน้าหลัก
METAR-TAF:

METAR-TAF

ท่าอากาศยาน :

Grant County Airport

Silver City, นิวเม็กซิโก, สหรัฐอเมริกา

ละติจูด: 32-38N, ลองจิจูด: 108-09W, ความสูง: 1659 ม.

การสังเกตสภาพอากาศปัจจุบัน

รายงานได้ทำขึ้นเมื่อ 20 นาทีที่แล้ว ณ เวลา 15:15 UTC
ลม 8 นอตจากตะวันตก
อุณหภูมิ 26°C
ความชื้น 16%
ความกดอากาศ 1015 hPa
ทัศนวิสัย: 16.1 กม.
มีเมฆกระจายเป็นบางส่วนที่ความสูง 11000 ฟุต

METAR: KSVC 181515Z AUTO 26008KT 10SM SCT110 26/M02 A2996 RMK AO2 T02601018

เวลา: 09:35 (15:35 UTC)


TAF: หายไป

สังเกตการณ์สภาพอากาศและพยากรณ์อากาศของสนามบินมากกว่า 4000 แห่ง (รายงาน METAR และ TAF).

สถานีที่ดูได้จะแสดงไว้ด้วยจุดสีเหลืองและสีแดงบนแผนที่.

เลื่อนเมาส์ไปเหนือจุดเพื่อดูชื่อสถานี.

แล้วคลิกเพื่อดูสังเกตการณ์และการพยากรณ์สภาพอากาศ.

ในการเปลี่ยนแผนที่: คลิกที่ปุ่มสีเขียวที่มีกากบาทสีดำเพื่อซูมเข้า; ที่ปุ่มสีเขียวที่มีขีดเพื่อซูมออก; หรือที่ลูกศรสีเขียวเพื่อไปยังแผนที่ที่อยู่ติดกัน.


METAR-TAF: